sensor_id;sensor_type;location;lat;lon;timestamp;P1;durP1;ratioP1;P2;durP2;ratioP2
75459;SDS011;64039;53.060;9.342;2023-04-25T00:01:45;7.88;;;3.45;;
75459;SDS011;64039;53.060;9.342;2023-04-25T00:04:11;10.07;;;3.67;;
75459;SDS011;64039;53.060;9.342;2023-04-25T00:06:36;6.85;;;3.92;;
75459;SDS011;64039;53.060;9.342;2023-04-25T00:09:03;8.48;;;3.75;;
75459;SDS011;64039;53.060;9.342;2023-04-25T00:11:32;7.00;;;3.95;;
75459;SDS011;64039;53.060;9.342;2023-04-25T00:13:58;7.47;;;4.03;;
75459;SDS011;64039;53.060;9.342;2023-04-25T00:16:24;7.57;;;4.03;;
75459;SDS011;64039;53.060;9.342;2023-04-25T00:18:50;7.38;;;4.10;;
75459;SDS011;64039;53.060;9.342;2023-04-25T00:21:18;7.63;;;5.18;;
75459;SDS011;64039;53.060;9.342;2023-04-25T00:23:45;14.73;;;4.70;;
75459;SDS011;64039;53.060;9.342;2023-04-25T00:26:10;13.23;;;5.05;;
75459;SDS011;64039;53.060;9.342;2023-04-25T00:28:36;12.18;;;4.65;;
75459;SDS011;64039;53.060;9.342;2023-04-25T00:31:02;18.50;;;4.80;;
75459;SDS011;64039;53.060;9.342;2023-04-25T00:33:28;13.68;;;4.18;;
75459;SDS011;64039;53.060;9.342;2023-04-25T00:35:54;15.70;;;4.75;;
75459;SDS011;64039;53.060;9.342;2023-04-25T00:38:20;17.05;;;4.32;;
75459;SDS011;64039;53.060;9.342;2023-04-25T00:40:45;15.30;;;3.58;;
75459;SDS011;64039;53.060;9.342;2023-04-25T00:43:11;11.20;;;3.60;;
75459;SDS011;64039;53.060;9.342;2023-04-25T00:45:37;17.05;;;3.80;;
75459;SDS011;64039;53.060;9.342;2023-04-25T00:48:04;14.73;;;3.40;;
75459;SDS011;64039;53.060;9.342;2023-04-25T00:50:30;23.13;;;4.60;;
75459;SDS011;64039;53.060;9.342;2023-04-25T00:52:55;14.82;;;3.30;;
75459;SDS011;64039;53.060;9.342;2023-04-25T00:55:21;22.52;;;4.60;;
75459;SDS011;64039;53.060;9.342;2023-04-25T00:57:46;12.63;;;3.25;;
75459;SDS011;64039;53.060;9.342;2023-04-25T01:00:14;13.98;;;3.15;;
75459;SDS011;64039;53.060;9.342;2023-04-25T01:02:40;19.50;;;3.88;;
75459;SDS011;64039;53.060;9.342;2023-04-25T01:05:07;23.42;;;3.65;;
75459;SDS011;64039;53.060;9.342;2023-04-25T01:07:33;25.92;;;4.13;;
75459;SDS011;64039;53.060;9.342;2023-04-25T01:09:59;21.05;;;3.40;;
75459;SDS011;64039;53.060;9.342;2023-04-25T01:12:24;14.20;;;3.55;;
75459;SDS011;64039;53.060;9.342;2023-04-25T01:14:50;15.20;;;3.22;;
75459;SDS011;64039;53.060;9.342;2023-04-25T01:17:16;14.10;;;4.10;;
75459;SDS011;64039;53.060;9.342;2023-04-25T01:19:42;15.20;;;3.38;;
75459;SDS011;64039;53.060;9.342;2023-04-25T01:22:09;18.05;;;3.40;;
75459;SDS011;64039;53.060;9.342;2023-04-25T01:24:35;18.67;;;3.30;;
75459;SDS011;64039;53.060;9.342;2023-04-25T01:27:02;18.05;;;3.55;;
75459;SDS011;64039;53.060;9.342;2023-04-25T01:29:28;16.55;;;3.85;;
75459;SDS011;64039;53.060;9.342;2023-04-25T01:31:54;21.90;;;3.40;;
75459;SDS011;64039;53.060;9.342;2023-04-25T01:34:19;16.05;;;3.25;;
75459;SDS011;64039;53.060;9.342;2023-04-25T01:36:47;16.20;;;3.13;;
75459;SDS011;64039;53.060;9.342;2023-04-25T01:39:14;14.38;;;3.08;;
75459;SDS011;64039;53.060;9.342;2023-04-25T01:41:40;26.95;;;3.35;;
75459;SDS011;64039;53.060;9.342;2023-04-25T01:44:06;20.90;;;3.30;;
75459;SDS011;64039;53.060;9.342;2023-04-25T01:46:33;18.38;;;3.05;;
75459;SDS011;64039;53.060;9.342;2023-04-25T01:48:59;22.73;;;3.65;;
75459;SDS011;64039;53.060;9.342;2023-04-25T01:51:25;19.90;;;3.60;;
75459;SDS011;64039;53.060;9.342;2023-04-25T01:53:50;16.48;;;3.63;;
75459;SDS011;64039;53.060;9.342;2023-04-25T01:56:17;20.17;;;3.50;;
75459;SDS011;64039;53.060;9.342;2023-04-25T01:58:43;21.60;;;3.38;;
75459;SDS011;64039;53.060;9.342;2023-04-25T02:01:08;26.38;;;3.45;;
75459;SDS011;64039;53.060;9.342;2023-04-25T02:03:34;25.98;;;3.28;;
75459;SDS011;64039;53.060;9.342;2023-04-25T02:06:00;23.77;;;3.55;;
75459;SDS011;64039;53.060;9.342;2023-04-25T02:08:25;24.60;;;3.30;;
75459;SDS011;64039;53.060;9.342;2023-04-25T02:10:51;15.05;;;3.13;;
75459;SDS011;64039;53.060;9.342;2023-04-25T02:13:17;20.88;;;4.15;;
75459;SDS011;64039;53.060;9.342;2023-04-25T02:15:42;22.67;;;3.53;;
75459;SDS011;64039;53.060;9.342;2023-04-25T02:18:08;14.48;;;3.15;;
75459;SDS011;64039;53.060;9.342;2023-04-25T02:20:35;22.80;;;3.65;;
75459;SDS011;64039;53.060;9.342;2023-04-25T02:23:01;16.48;;;3.53;;
75459;SDS011;64039;53.060;9.342;2023-04-25T02:25:27;16.67;;;3.40;;
75459;SDS011;64039;53.060;9.342;2023-04-25T02:27:52;19.10;;;3.03;;
75459;SDS011;64039;53.060;9.342;2023-04-25T02:30:18;19.10;;;3.25;;
75459;SDS011;64039;53.060;9.342;2023-04-25T02:32:44;23.38;;;3.58;;
75459;SDS011;64039;53.060;9.342;2023-04-25T02:35:09;15.55;;;2.92;;
75459;SDS011;64039;53.060;9.342;2023-04-25T02:37:36;18.92;;;2.85;;
75459;SDS011;64039;53.060;9.342;2023-04-25T02:40:03;16.20;;;2.75;;
75459;SDS011;64039;53.060;9.342;2023-04-25T02:42:29;16.85;;;4.20;;
75459;SDS011;64039;53.060;9.342;2023-04-25T02:44:55;12.95;;;3.00;;
75459;SDS011;64039;53.060;9.342;2023-04-25T02:47:20;21.25;;;3.30;;
75459;SDS011;64039;53.060;9.342;2023-04-25T02:49:46;18.55;;;3.25;;
75459;SDS011;64039;53.060;9.342;2023-04-25T02:52:11;16.15;;;3.20;;
75459;SDS011;64039;53.060;9.342;2023-04-25T02:54:38;15.05;;;2.75;;
75459;SDS011;64039;53.060;9.342;2023-04-25T02:57:03;14.00;;;2.65;;
75459;SDS011;64039;53.060;9.342;2023-04-25T02:59:29;18.50;;;3.00;;
75459;SDS011;64039;53.060;9.342;2023-04-25T03:01:55;20.95;;;3.22;;
75459;SDS011;64039;53.060;9.342;2023-04-25T03:04:20;16.63;;;3.15;;
75459;SDS011;64039;53.060;9.342;2023-04-25T03:06:48;19.60;;;3.22;;
75459;SDS011;64039;53.060;9.342;2023-04-25T03:09:16;19.27;;;3.28;;
75459;SDS011;64039;53.060;9.342;2023-04-25T03:11:41;17.35;;;2.72;;
75459;SDS011;64039;53.060;9.342;2023-04-25T03:14:07;18.23;;;3.22;;
75459;SDS011;64039;53.060;9.342;2023-04-25T03:16:32;22.23;;;3.38;;
75459;SDS011;64039;53.060;9.342;2023-04-25T03:18:58;21.35;;;3.33;;
75459;SDS011;64039;53.060;9.342;2023-04-25T03:21:24;20.00;;;3.03;;
75459;SDS011;64039;53.060;9.342;2023-04-25T03:23:50;14.88;;;2.90;;
75459;SDS011;64039;53.060;9.342;2023-04-25T03:26:15;16.60;;;2.72;;
75459;SDS011;64039;53.060;9.342;2023-04-25T03:28:41;15.32;;;3.10;;
75459;SDS011;64039;53.060;9.342;2023-04-25T03:31:06;22.55;;;3.13;;
75459;SDS011;64039;53.060;9.342;2023-04-25T03:33:32;11.88;;;2.55;;
75459;SDS011;64039;53.060;9.342;2023-04-25T03:35:57;17.48;;;2.92;;
75459;SDS011;64039;53.060;9.342;2023-04-25T03:38:23;15.55;;;2.50;;
75459;SDS011;64039;53.060;9.342;2023-04-25T03:40:49;14.57;;;2.60;;
75459;SDS011;64039;53.060;9.342;2023-04-25T03:43:15;19.67;;;3.35;;
75459;SDS011;64039;53.060;9.342;2023-04-25T03:45:41;15.95;;;3.13;;
75459;SDS011;64039;53.060;9.342;2023-04-25T03:48:07;15.63;;;3.10;;
75459;SDS011;64039;53.060;9.342;2023-04-25T03:50:32;18.45;;;3.47;;
75459;SDS011;64039;53.060;9.342;2023-04-25T03:52:57;22.23;;;3.25;;
75459;SDS011;64039;53.060;9.342;2023-04-25T03:55:23;19.58;;;2.80;;
75459;SDS011;64039;53.060;9.342;2023-04-25T03:57:48;14.70;;;2.88;;
75459;SDS011;64039;53.060;9.342;2023-04-25T04:00:14;16.38;;;3.08;;
75459;SDS011;64039;53.060;9.342;2023-04-25T04:02:39;14.40;;;2.67;;
75459;SDS011;64039;53.060;9.342;2023-04-25T04:05:05;16.17;;;3.47;;
75459;SDS011;64039;53.060;9.342;2023-04-25T04:07:31;12.35;;;2.58;;
75459;SDS011;64039;53.060;9.342;2023-04-25T04:09:58;17.52;;;2.83;;
75459;SDS011;64039;53.060;9.342;2023-04-25T04:12:24;15.23;;;2.65;;
75459;SDS011;64039;53.060;9.342;2023-04-25T04:14:49;14.70;;;2.42;;
75459;SDS011;64039;53.060;9.342;2023-04-25T04:17:15;20.10;;;3.17;;
75459;SDS011;64039;53.060;9.342;2023-04-25T04:19:40;16.98;;;2.95;;
75459;SDS011;64039;53.060;9.342;2023-04-25T04:22:06;13.75;;;2.70;;
75459;SDS011;64039;53.060;9.342;2023-04-25T04:24:31;13.00;;;2.97;;
75459;SDS011;64039;53.060;9.342;2023-04-25T04:26:57;21.15;;;2.67;;
75459;SDS011;64039;53.060;9.342;2023-04-25T04:29:24;17.90;;;2.60;;
75459;SDS011;64039;53.060;9.342;2023-04-25T04:31:50;15.65;;;3.03;;
75459;SDS011;64039;53.060;9.342;2023-04-25T04:34:19;23.23;;;3.13;;
75459;SDS011;64039;53.060;9.342;2023-04-25T04:36:45;18.33;;;3.05;;
75459;SDS011;64039;53.060;9.342;2023-04-25T04:39:16;13.77;;;2.58;;
75459;SDS011;64039;53.060;9.342;2023-04-25T04:41:42;9.00;;;2.55;;
75459;SDS011;64039;53.060;9.342;2023-04-25T04:44:10;17.20;;;2.30;;
75459;SDS011;64039;53.060;9.342;2023-04-25T04:46:37;15.63;;;3.47;;
75459;SDS011;64039;53.060;9.342;2023-04-25T04:49:05;18.73;;;3.53;;
75459;SDS011;64039;53.060;9.342;2023-04-25T04:51:31;13.93;;;2.67;;
75459;SDS011;64039;53.060;9.342;2023-04-25T04:53:58;15.20;;;3.10;;
75459;SDS011;64039;53.060;9.342;2023-04-25T04:56:27;18.60;;;3.40;;
75459;SDS011;64039;53.060;9.342;2023-04-25T04:58:59;10.77;;;2.37;;
75459;SDS011;64039;53.060;9.342;2023-04-25T05:01:25;12.88;;;2.38;;
75459;SDS011;64039;53.060;9.342;2023-04-25T05:03:51;12.90;;;2.50;;
75459;SDS011;64039;53.060;9.342;2023-04-25T05:06:20;18.83;;;3.22;;
75459;SDS011;64039;53.060;9.342;2023-04-25T05:08:45;11.05;;;2.40;;
75459;SDS011;64039;53.060;9.342;2023-04-25T05:11:11;14.98;;;2.80;;
75459;SDS011;64039;53.060;9.342;2023-04-25T05:13:36;14.82;;;2.78;;
75459;SDS011;64039;53.060;9.342;2023-04-25T05:16:02;11.07;;;2.35;;
75459;SDS011;64039;53.060;9.342;2023-04-25T05:18:28;15.20;;;2.70;;
75459;SDS011;64039;53.060;9.342;2023-04-25T05:20:53;13.75;;;2.40;;
75459;SDS011;64039;53.060;9.342;2023-04-25T05:23:19;14.60;;;2.80;;
75459;SDS011;64039;53.060;9.342;2023-04-25T05:25:44;20.50;;;2.72;;
75459;SDS011;64039;53.060;9.342;2023-04-25T05:28:11;11.63;;;2.33;;
75459;SDS011;64039;53.060;9.342;2023-04-25T05:30:37;13.18;;;2.28;;
75459;SDS011;64039;53.060;9.342;2023-04-25T05:33:03;12.32;;;2.75;;
75459;SDS011;64039;53.060;9.342;2023-04-25T05:35:28;18.35;;;2.20;;
75459;SDS011;64039;53.060;9.342;2023-04-25T05:37:54;11.90;;;2.55;;
75459;SDS011;64039;53.060;9.342;2023-04-25T05:40:19;9.65;;;2.13;;
75459;SDS011;64039;53.060;9.342;2023-04-25T05:42:45;15.77;;;2.78;;
75459;SDS011;64039;53.060;9.342;2023-04-25T05:45:11;15.35;;;2.97;;
75459;SDS011;64039;53.060;9.342;2023-04-25T05:47:37;18.23;;;2.78;;
75459;SDS011;64039;53.060;9.342;2023-04-25T05:50:03;15.80;;;2.75;;
75459;SDS011;64039;53.060;9.342;2023-04-25T05:52:29;15.77;;;2.72;;
75459;SDS011;64039;53.060;9.342;2023-04-25T05:54:54;13.82;;;2.60;;
75459;SDS011;64039;53.060;9.342;2023-04-25T05:57:23;16.92;;;3.00;;
75459;SDS011;64039;53.060;9.342;2023-04-25T05:59:50;15.30;;;2.40;;
75459;SDS011;64039;53.060;9.342;2023-04-25T06:02:15;20.92;;;2.95;;
75459;SDS011;64039;53.060;9.342;2023-04-25T06:04:41;19.75;;;2.53;;
75459;SDS011;64039;53.060;9.342;2023-04-25T06:07:06;12.90;;;2.40;;
75459;SDS011;64039;53.060;9.342;2023-04-25T06:09:32;13.10;;;2.25;;
75459;SDS011;64039;53.060;9.342;2023-04-25T06:11:57;11.68;;;2.20;;
75459;SDS011;64039;53.060;9.342;2023-04-25T06:14:22;11.35;;;2.13;;
75459;SDS011;64039;53.060;9.342;2023-04-25T06:16:48;10.73;;;2.17;;
75459;SDS011;64039;53.060;9.342;2023-04-25T06:19:13;15.77;;;2.58;;
75459;SDS011;64039;53.060;9.342;2023-04-25T06:21:38;10.18;;;2.10;;
75459;SDS011;64039;53.060;9.342;2023-04-25T06:24:04;14.38;;;2.75;;
75459;SDS011;64039;53.060;9.342;2023-04-25T06:26:29;12.45;;;2.58;;
75459;SDS011;64039;53.060;9.342;2023-04-25T06:28:55;10.38;;;2.10;;
75459;SDS011;64039;53.060;9.342;2023-04-25T06:31:20;13.75;;;2.60;;
75459;SDS011;64039;53.060;9.342;2023-04-25T06:33:46;17.00;;;2.70;;
75459;SDS011;64039;53.060;9.342;2023-04-25T06:36:13;10.02;;;2.13;;
75459;SDS011;64039;53.060;9.342;2023-04-25T06:38:38;12.68;;;1.83;;
75459;SDS011;64039;53.060;9.342;2023-04-25T06:41:04;18.13;;;2.47;;
75459;SDS011;64039;53.060;9.342;2023-04-25T06:43:29;9.35;;;2.05;;
75459;SDS011;64039;53.060;9.342;2023-04-25T06:45:58;12.50;;;2.63;;
75459;SDS011;64039;53.060;9.342;2023-04-25T06:48:24;17.20;;;2.83;;
75459;SDS011;64039;53.060;9.342;2023-04-25T06:50:50;11.70;;;2.33;;
75459;SDS011;64039;53.060;9.342;2023-04-25T06:53:15;10.30;;;2.22;;
75459;SDS011;64039;53.060;9.342;2023-04-25T06:55:41;15.65;;;2.92;;
75459;SDS011;64039;53.060;9.342;2023-04-25T06:58:06;11.30;;;2.78;;
75459;SDS011;64039;53.060;9.342;2023-04-25T07:00:32;12.50;;;2.35;;
75459;SDS011;64039;53.060;9.342;2023-04-25T07:02:58;12.45;;;1.98;;
75459;SDS011;64039;53.060;9.342;2023-04-25T07:05:24;18.55;;;2.10;;
75459;SDS011;64039;53.060;9.342;2023-04-25T07:07:49;10.07;;;1.85;;
75459;SDS011;64039;53.060;9.342;2023-04-25T07:10:15;12.88;;;2.03;;
75459;SDS011;64039;53.060;9.342;2023-04-25T07:12:40;8.70;;;1.98;;
75459;SDS011;64039;53.060;9.342;2023-04-25T07:15:06;11.45;;;2.53;;
75459;SDS011;64039;53.060;9.342;2023-04-25T07:17:33;11.63;;;2.15;;
75459;SDS011;64039;53.060;9.342;2023-04-25T07:19:59;9.55;;;1.80;;
75459;SDS011;64039;53.060;9.342;2023-04-25T07:22:24;14.07;;;2.20;;
75459;SDS011;64039;53.060;9.342;2023-04-25T07:24:51;9.30;;;1.90;;
75459;SDS011;64039;53.060;9.342;2023-04-25T07:27:18;12.85;;;2.05;;
75459;SDS011;64039;53.060;9.342;2023-04-25T07:29:44;14.25;;;2.22;;
75459;SDS011;64039;53.060;9.342;2023-04-25T07:32:09;12.18;;;2.08;;
75459;SDS011;64039;53.060;9.342;2023-04-25T07:34:37;7.43;;;1.85;;
75459;SDS011;64039;53.060;9.342;2023-04-25T07:37:03;8.18;;;1.92;;
75459;SDS011;64039;53.060;9.342;2023-04-25T07:39:30;10.05;;;1.70;;
75459;SDS011;64039;53.060;9.342;2023-04-25T07:41:55;8.25;;;1.50;;
75459;SDS011;64039;53.060;9.342;2023-04-25T07:44:21;9.43;;;1.60;;
75459;SDS011;64039;53.060;9.342;2023-04-25T07:46:46;6.45;;;1.35;;
75459;SDS011;64039;53.060;9.342;2023-04-25T07:49:12;5.97;;;1.20;;
75459;SDS011;64039;53.060;9.342;2023-04-25T07:51:37;13.05;;;1.42;;
75459;SDS011;64039;53.060;9.342;2023-04-25T07:54:03;12.88;;;1.52;;
75459;SDS011;64039;53.060;9.342;2023-04-25T07:56:30;10.63;;;1.65;;
75459;SDS011;64039;53.060;9.342;2023-04-25T07:58:55;6.43;;;1.30;;
75459;SDS011;64039;53.060;9.342;2023-04-25T08:01:21;10.15;;;1.60;;
75459;SDS011;64039;53.060;9.342;2023-04-25T08:03:47;10.27;;;1.50;;
75459;SDS011;64039;53.060;9.342;2023-04-25T08:06:12;4.40;;;0.98;;
75459;SDS011;64039;53.060;9.342;2023-04-25T08:08:37;7.60;;;1.40;;
75459;SDS011;64039;53.060;9.342;2023-04-25T08:11:03;12.50;;;2.00;;
75459;SDS011;64039;53.060;9.342;2023-04-25T08:13:28;12.00;;;1.77;;
75459;SDS011;64039;53.060;9.342;2023-04-25T08:15:54;6.88;;;1.40;;
75459;SDS011;64039;53.060;9.342;2023-04-25T08:18:19;10.27;;;1.52;;
75459;SDS011;64039;53.060;9.342;2023-04-25T08:20:45;12.90;;;1.50;;
75459;SDS011;64039;53.060;9.342;2023-04-25T08:23:10;9.98;;;1.70;;
75459;SDS011;64039;53.060;9.342;2023-04-25T08:25:36;8.63;;;1.58;;
75459;SDS011;64039;53.060;9.342;2023-04-25T08:28:01;9.70;;;1.75;;
75459;SDS011;64039;53.060;9.342;2023-04-25T08:30:28;6.70;;;1.33;;
75459;SDS011;64039;53.060;9.342;2023-04-25T08:32:54;6.28;;;1.17;;
75459;SDS011;64039;53.060;9.342;2023-04-25T08:35:19;7.10;;;1.20;;
75459;SDS011;64039;53.060;9.342;2023-04-25T08:37:45;9.25;;;1.38;;
75459;SDS011;64039;53.060;9.342;2023-04-25T08:40:11;10.15;;;1.20;;
75459;SDS011;64039;53.060;9.342;2023-04-25T08:42:39;10.43;;;1.65;;
75459;SDS011;64039;53.060;9.342;2023-04-25T08:45:08;12.40;;;1.50;;
75459;SDS011;64039;53.060;9.342;2023-04-25T08:47:34;8.80;;;1.90;;
75459;SDS011;64039;53.060;9.342;2023-04-25T08:50:02;6.63;;;1.35;;
75459;SDS011;64039;53.060;9.342;2023-04-25T08:52:32;7.50;;;1.35;;
75459;SDS011;64039;53.060;9.342;2023-04-25T08:55:02;10.75;;;1.75;;
75459;SDS011;64039;53.060;9.342;2023-04-25T08:57:29;4.88;;;1.40;;
75459;SDS011;64039;53.060;9.342;2023-04-25T08:59:56;7.50;;;1.20;;
75459;SDS011;64039;53.060;9.342;2023-04-25T09:02:22;8.07;;;1.27;;
75459;SDS011;64039;53.060;9.342;2023-04-25T09:04:49;10.52;;;1.75;;
75459;SDS011;64039;53.060;9.342;2023-04-25T09:07:15;7.57;;;1.10;;
75459;SDS011;64039;53.060;9.342;2023-04-25T09:09:43;7.53;;;1.30;;
75459;SDS011;64039;53.060;9.342;2023-04-25T09:12:09;9.45;;;1.30;;
75459;SDS011;64039;53.060;9.342;2023-04-25T09:14:35;10.95;;;1.50;;
75459;SDS011;64039;53.060;9.342;2023-04-25T09:17:01;5.78;;;1.15;;
75459;SDS011;64039;53.060;9.342;2023-04-25T09:19:34;7.93;;;1.35;;
75459;SDS011;64039;53.060;9.342;2023-04-25T09:22:02;8.23;;;1.40;;
75459;SDS011;64039;53.060;9.342;2023-04-25T09:24:33;7.80;;;1.10;;
75459;SDS011;64039;53.060;9.342;2023-04-25T09:27:00;9.13;;;1.40;;
75459;SDS011;64039;53.060;9.342;2023-04-25T09:29:32;6.72;;;1.10;;
75459;SDS011;64039;53.060;9.342;2023-04-25T09:32:18;9.68;;;1.15;;
75459;SDS011;64039;53.060;9.342;2023-04-25T09:34:54;5.93;;;1.08;;
75459;SDS011;64039;53.060;9.342;2023-04-25T09:39:52;6.05;;;1.30;;
75459;SDS011;64039;53.060;9.342;2023-04-25T09:42:24;13.40;;;1.60;;
75459;SDS011;64039;53.060;9.342;2023-04-25T09:44:54;5.78;;;1.17;;
75459;SDS011;64039;53.060;9.342;2023-04-25T09:47:21;5.65;;;1.00;;
75459;SDS011;64039;53.060;9.342;2023-04-25T09:49:48;9.88;;;1.38;;
75459;SDS011;64039;53.060;9.342;2023-04-25T09:52:19;6.18;;;1.00;;
75459;SDS011;64039;53.060;9.342;2023-04-25T09:54:45;4.03;;;0.90;;
75459;SDS011;64039;53.060;9.342;2023-04-25T09:57:16;6.75;;;1.50;;
75459;SDS011;64039;53.060;9.342;2023-04-25T09:59:49;3.90;;;0.90;;
75459;SDS011;64039;53.060;9.342;2023-04-25T10:02:21;6.18;;;0.93;;
75459;SDS011;64039;53.060;9.342;2023-04-25T10:04:48;4.78;;;1.33;;
75459;SDS011;64039;53.060;9.342;2023-04-25T10:07:20;3.97;;;1.35;;
75459;SDS011;64039;53.060;9.342;2023-04-25T10:09:50;7.93;;;1.23;;
75459;SDS011;64039;53.060;9.342;2023-04-25T10:12:26;5.97;;;1.00;;
75459;SDS011;64039;53.060;9.342;2023-04-25T10:14:52;3.15;;;0.90;;
75459;SDS011;64039;53.060;9.342;2023-04-25T10:17:17;4.88;;;1.00;;
75459;SDS011;64039;53.060;9.342;2023-04-25T10:19:45;3.20;;;0.65;;
75459;SDS011;64039;53.060;9.342;2023-04-25T10:22:17;2.25;;;0.65;;
75459;SDS011;64039;53.060;9.342;2023-04-25T10:24:48;5.45;;;0.80;;
75459;SDS011;64039;53.060;9.342;2023-04-25T10:27:15;6.65;;;0.90;;
75459;SDS011;64039;53.060;9.342;2023-04-25T10:29:41;3.75;;;0.70;;
75459;SDS011;64039;53.060;9.342;2023-04-25T10:32:08;4.88;;;0.73;;
75459;SDS011;64039;53.060;9.342;2023-04-25T10:34:41;6.32;;;1.20;;
75459;SDS011;64039;53.060;9.342;2023-04-25T10:37:09;4.13;;;0.90;;
75459;SDS011;64039;53.060;9.342;2023-04-25T10:39:35;4.18;;;0.82;;
75459;SDS011;64039;53.060;9.342;2023-04-25T10:42:02;2.63;;;0.70;;
75459;SDS011;64039;53.060;9.342;2023-04-25T10:44:28;3.15;;;1.00;;
75459;SDS011;64039;53.060;9.342;2023-04-25T10:46:58;3.90;;;0.90;;
75459;SDS011;64039;53.060;9.342;2023-04-25T10:49:32;3.78;;;1.20;;
75459;SDS011;64039;53.060;9.342;2023-04-25T10:52:15;5.53;;;0.90;;
75459;SDS011;64039;53.060;9.342;2023-04-25T10:54:51;4.40;;;0.80;;
75459;SDS011;64039;53.060;9.342;2023-04-25T10:57:31;6.03;;;1.00;;
75459;SDS011;64039;53.060;9.342;2023-04-25T11:00:08;4.45;;;0.98;;
75459;SDS011;64039;53.060;9.342;2023-04-25T11:02:46;5.85;;;1.10;;
75459;SDS011;64039;53.060;9.342;2023-04-25T11:05:23;3.80;;;1.02;;
75459;SDS011;64039;53.060;9.342;2023-04-25T11:07:56;5.43;;;0.93;;
75459;SDS011;64039;53.060;9.342;2023-04-25T11:10:26;6.35;;;1.10;;
75459;SDS011;64039;53.060;9.342;2023-04-25T11:12:53;2.88;;;0.95;;
75459;SDS011;64039;53.060;9.342;2023-04-25T11:15:18;7.57;;;0.90;;
75459;SDS011;64039;53.060;9.342;2023-04-25T11:17:44;4.00;;;1.08;;
75459;SDS011;64039;53.060;9.342;2023-04-25T11:20:11;3.30;;;1.10;;
75459;SDS011;64039;53.060;9.342;2023-04-25T11:22:39;4.57;;;1.08;;
75459;SDS011;64039;53.060;9.342;2023-04-25T11:25:09;5.35;;;1.20;;
75459;SDS011;64039;53.060;9.342;2023-04-25T11:27:48;3.20;;;1.15;;
75459;SDS011;64039;53.060;9.342;2023-04-25T11:30:16;5.35;;;1.10;;
75459;SDS011;64039;53.060;9.342;2023-04-25T11:32:42;5.07;;;0.90;;
75459;SDS011;64039;53.060;9.342;2023-04-25T11:35:10;6.40;;;0.98;;
75459;SDS011;64039;53.060;9.342;2023-04-25T11:37:37;3.45;;;0.88;;
75459;SDS011;64039;53.060;9.342;2023-04-25T11:40:04;4.07;;;1.10;;
75459;SDS011;64039;53.060;9.342;2023-04-25T11:42:31;5.72;;;1.20;;
75459;SDS011;64039;53.060;9.342;2023-04-25T11:44:57;9.10;;;1.20;;
75459;SDS011;64039;53.060;9.342;2023-04-25T11:47:29;7.22;;;0.93;;
75459;SDS011;64039;53.060;9.342;2023-04-25T11:49:58;5.80;;;1.00;;
75459;SDS011;64039;53.060;9.342;2023-04-25T11:52:30;6.93;;;0.90;;
75459;SDS011;64039;53.060;9.342;2023-04-25T11:55:00;4.20;;;1.00;;
75459;SDS011;64039;53.060;9.342;2023-04-25T11:57:26;5.40;;;0.90;;
75459;SDS011;64039;53.060;9.342;2023-04-25T11:59:51;4.13;;;0.70;;
75459;SDS011;64039;53.060;9.342;2023-04-25T12:02:26;8.50;;;1.00;;
75459;SDS011;64039;53.060;9.342;2023-04-25T12:04:51;4.15;;;0.93;;
75459;SDS011;64039;53.060;9.342;2023-04-25T12:07:17;3.35;;;0.80;;
75459;SDS011;64039;53.060;9.342;2023-04-25T12:09:51;3.92;;;0.80;;
75459;SDS011;64039;53.060;9.342;2023-04-25T12:12:18;6.15;;;0.93;;
75459;SDS011;64039;53.060;9.342;2023-04-25T12:14:45;2.58;;;0.70;;
75459;SDS011;64039;53.060;9.342;2023-04-25T12:17:16;3.15;;;0.68;;
75459;SDS011;64039;53.060;9.342;2023-04-25T12:19:41;6.35;;;0.95;;
75459;SDS011;64039;53.060;9.342;2023-04-25T12:22:24;8.90;;;1.00;;
75459;SDS011;64039;53.060;9.342;2023-04-25T12:24:50;3.60;;;0.93;;
75459;SDS011;64039;53.060;9.342;2023-04-25T12:27:17;9.57;;;1.42;;
75459;SDS011;64039;53.060;9.342;2023-04-25T12:29:54;5.90;;;1.20;;
75459;SDS011;64039;53.060;9.342;2023-04-25T12:32:20;5.03;;;1.10;;
75459;SDS011;64039;53.060;9.342;2023-04-25T12:34:46;3.80;;;0.90;;
75459;SDS011;64039;53.060;9.342;2023-04-25T12:37:12;5.95;;;1.00;;
75459;SDS011;64039;53.060;9.342;2023-04-25T12:39:38;6.10;;;1.17;;
75459;SDS011;64039;53.060;9.342;2023-04-25T12:42:03;4.57;;;0.85;;
75459;SDS011;64039;53.060;9.342;2023-04-25T12:44:29;5.95;;;1.45;;
75459;SDS011;64039;53.060;9.342;2023-04-25T12:46:54;4.47;;;1.20;;
75459;SDS011;64039;53.060;9.342;2023-04-25T12:49:20;4.70;;;0.95;;
75459;SDS011;64039;53.060;9.342;2023-04-25T12:51:46;4.20;;;0.90;;
75459;SDS011;64039;53.060;9.342;2023-04-25T12:54:14;3.60;;;1.00;;
75459;SDS011;64039;53.060;9.342;2023-04-25T12:56:40;4.40;;;1.10;;
75459;SDS011;64039;53.060;9.342;2023-04-25T12:59:06;1.80;;;0.60;;
75459;SDS011;64039;53.060;9.342;2023-04-25T13:01:31;3.08;;;0.90;;
75459;SDS011;64039;53.060;9.342;2023-04-25T13:03:57;6.55;;;0.93;;
75459;SDS011;64039;53.060;9.342;2023-04-25T13:06:23;6.03;;;1.30;;
75459;SDS011;64039;53.060;9.342;2023-04-25T13:08:48;6.70;;;0.80;;
75459;SDS011;64039;53.060;9.342;2023-04-25T13:11:14;4.03;;;0.70;;
75459;SDS011;64039;53.060;9.342;2023-04-25T13:13:40;4.93;;;1.17;;
75459;SDS011;64039;53.060;9.342;2023-04-25T13:16:06;3.60;;;0.93;;
75459;SDS011;64039;53.060;9.342;2023-04-25T13:18:32;2.38;;;0.80;;
75459;SDS011;64039;53.060;9.342;2023-04-25T13:20:58;6.00;;;0.85;;
75459;SDS011;64039;53.060;9.342;2023-04-25T13:23:27;3.83;;;1.00;;
75459;SDS011;64039;53.060;9.342;2023-04-25T13:25:54;5.20;;;1.30;;
75459;SDS011;64039;53.060;9.342;2023-04-25T13:28:20;7.97;;;1.52;;
75459;SDS011;64039;53.060;9.342;2023-04-25T13:30:46;6.15;;;1.30;;
75459;SDS011;64039;53.060;9.342;2023-04-25T13:33:13;4.60;;;1.00;;
75459;SDS011;64039;53.060;9.342;2023-04-25T13:35:39;5.10;;;0.90;;
75459;SDS011;64039;53.060;9.342;2023-04-25T13:38:04;7.28;;;1.10;;
75459;SDS011;64039;53.060;9.342;2023-04-25T13:40:30;4.70;;;0.80;;
75459;SDS011;64039;53.060;9.342;2023-04-25T13:42:56;6.07;;;1.00;;
75459;SDS011;64039;53.060;9.342;2023-04-25T13:45:22;5.55;;;1.05;;
75459;SDS011;64039;53.060;9.342;2023-04-25T13:47:48;3.33;;;0.85;;
75459;SDS011;64039;53.060;9.342;2023-04-25T13:50:13;4.25;;;0.80;;
75459;SDS011;64039;53.060;9.342;2023-04-25T13:52:40;3.45;;;0.80;;
75459;SDS011;64039;53.060;9.342;2023-04-25T13:55:05;5.35;;;1.08;;
75459;SDS011;64039;53.060;9.342;2023-04-25T13:57:32;4.80;;;0.93;;
75459;SDS011;64039;53.060;9.342;2023-04-25T13:59:58;7.15;;;1.10;;
75459;SDS011;64039;53.060;9.342;2023-04-25T14:02:24;6.68;;;1.05;;
75459;SDS011;64039;53.060;9.342;2023-04-25T14:04:51;6.38;;;1.00;;
75459;SDS011;64039;53.060;9.342;2023-04-25T14:07:16;5.32;;;0.95;;
75459;SDS011;64039;53.060;9.342;2023-04-25T14:09:43;7.43;;;1.30;;
75459;SDS011;64039;53.060;9.342;2023-04-25T14:12:09;6.50;;;1.20;;
75459;SDS011;64039;53.060;9.342;2023-04-25T14:14:34;7.00;;;1.40;;
75459;SDS011;64039;53.060;9.342;2023-04-25T14:17:00;6.32;;;0.90;;
75459;SDS011;64039;53.060;9.342;2023-04-25T14:19:25;7.72;;;1.10;;
75459;SDS011;64039;53.060;9.342;2023-04-25T14:21:51;4.60;;;1.20;;
75459;SDS011;64039;53.060;9.342;2023-04-25T14:24:16;6.35;;;1.10;;
75459;SDS011;64039;53.060;9.342;2023-04-25T14:26:42;6.32;;;1.02;;
75459;SDS011;64039;53.060;9.342;2023-04-25T14:29:08;7.45;;;1.15;;
75459;SDS011;64039;53.060;9.342;2023-04-25T14:31:36;7.47;;;1.10;;
75459;SDS011;64039;53.060;9.342;2023-04-25T14:34:02;8.63;;;1.45;;
75459;SDS011;64039;53.060;9.342;2023-04-25T14:36:28;9.45;;;2.17;;
75459;SDS011;64039;53.060;9.342;2023-04-25T14:38:54;4.72;;;1.23;;
75459;SDS011;64039;53.060;9.342;2023-04-25T14:41:20;11.63;;;1.52;;